Flight Track Log - Related Links

Times and Time Zones

All times are in EDT time to prevent confusion due to time zone crossing. See the ASA67 flight status page for this flight to view local times or setup timezone preferences in your user account.

Time Position Orientation Groundspeed Altitude Reporting Facility
EDT Latitude Longitude Course Direction KTS MPH feet Rate Location/Type
Tue 06:53:42 PM 47.4175 -122.3103 180° South 183 211 1,800  Level Seattle Center
Tue 06:54:37 PM 47.3575 -122.3106 180° South 235 270 3,900 2,149 Climbing Seattle Center
Tue 06:54:49 PM 47.3486 -122.3114 184° South 228 262 4,200 1,855 Climbing Seattle Center
Tue 06:55:32 PM 47.3133 -122.3644 226° Southwest 282 325 5,600 1,672 Climbing Seattle Center
Tue 06:55:50 PM 47.3103 -122.3964 262° West 264 304 5,900 873 Climbing Seattle Center
Tue 06:56:27 PM 47.3144 -122.4650 275° West 277 319 6,400 1,180 Climbing Seattle Center
Tue 06:56:51 PM 47.3306 -122.4997 304° West 273 314 7,100 2,753 Climbing Seattle Center
Tue 06:57:52 PM 47.3908 -122.5875 315° West 284 327 10,300 2,293 Climbing Seattle Center
Tue 06:58:54 PM 47.4600 -122.6781 318° Northwest 338 389 11,800 2,098 Climbing Seattle Center
Tue 06:59:55 PM 47.5378 -122.7781 319° Northwest 371 427 14,600 2,410 Climbing Seattle Center
Tue 07:00:56 PM 47.6164 -122.8797 319° Northwest 382 440 16,700 2,213 Climbing Seattle Center
Tue 07:01:57 PM 47.6978 -122.9942 317° Northwest 395 455 19,100 2,311 Climbing Seattle Center
Tue 07:02:58 PM 47.7797 -123.1156 315° West 409 471 21,400 2,262 Climbing Seattle Center
Tue 07:03:59 PM 47.8594 -123.2347 315° West 409 471 23,700 1,967 Climbing Seattle Center
Tue 07:05:00 PM 47.9403 -123.3556 315° West 409 471 25,400 1,131 Climbing Seattle Center
Tue 07:06:01 PM 48.0244 -123.4789 316° Northwest 418 481 26,000 295 Climbing Seattle Center
Tue 07:07:02 PM 48.1092 -123.6086 314° West 433 498 26,000  Level Seattle Center
Tue 07:08:03 PM 48.2047 -123.7161 323° Northwest 433 498 26,000  Level Seattle Center
Tue 07:10:06 PM 48.4167 -123.9000 330° Northwest 420 483 26,000  Level Vancouver Center
Tue 07:11:06 PM 48.5167 -123.9833 331° Northwest 430 495 26,000  Level Vancouver Center
Tue 07:12:06 PM 48.6333 -124.0500 339° North 430 495 26,000  Level Vancouver Center
Tue 07:13:06 PM 48.7333 -124.1500 327° Northwest 430 495 26,000  Level Vancouver Center
Tue 07:14:06 PM 48.8333 -124.2333 331° Northwest 420 483 26,000  Level Vancouver Center
Tue 07:15:06 PM 48.9333 -124.3000 336° Northwest 430 495 26,000  Level Vancouver Center
Tue 07:16:06 PM 49.0500 -124.4167 327° Northwest 420 483 26,000  Level Vancouver Center
Tue 07:17:06 PM 49.1500 -124.4833 336° Northwest 400 460 26,000  Level Vancouver Center
Tue 07:18:06 PM 49.2333 -124.5333 339° North 390 449 26,000  Level Vancouver Center
Tue 07:19:06 PM 49.3333 -124.6500 323° Northwest 390 449 26,000  Level Vancouver Center
Tue 07:20:06 PM 49.4333 -124.7167 337° Northwest 390 449 26,000  Level Vancouver Center
Tue 07:21:06 PM 49.5333 -124.8000 332° Northwest 400 460 26,000  Level Vancouver Center
Tue 07:22:06 PM 49.6167 -124.9000 322° Northwest 400 460 26,000  Level Vancouver Center
Tue 07:23:06 PM 49.7167 -125.0167 323° Northwest 400 460 26,000  Level Vancouver Center
Tue 07:24:06 PM 49.8167 -125.1000 332° Northwest 400 460 26,000  Level Vancouver Center
Tue 07:25:06 PM 49.9000 -125.2000 322° Northwest 400 460 26,000  Level Vancouver Center
Tue 07:26:06 PM 50.0000 -125.3000 327° Northwest 390 449 26,000  Level Vancouver Center
Tue 07:27:06 PM 50.0833 -125.3833 327° Northwest 390 449 26,000  Level Vancouver Center
Tue 07:28:06 PM 50.1667 -125.4667 327° Northwest 380 437 26,000  Level Vancouver Center
Tue 07:29:06 PM 50.2667 -125.5667 327° Northwest 380 437 26,000  Level Vancouver Center
Tue 07:30:06 PM 50.3500 -125.6500 327° Northwest 380 437 26,000  Level Vancouver Center
Tue 07:31:06 PM 50.4167 -125.7667 312° West 380 437 26,000  Level Vancouver Center
Tue 07:32:06 PM 50.5000 -125.8500 328° Northwest 380 437 26,000  Level Vancouver Center
Tue 07:33:06 PM 50.6000 -125.9500 328° Northwest 380 437 26,000  Level Vancouver Center
Tue 07:34:06 PM 50.6833 -126.0333 328° Northwest 380 437 26,000  Level Vancouver Center
Tue 07:35:06 PM 50.7667 -126.1500 318° Northwest 380 437 26,000  Level Vancouver Center
Tue 07:36:06 PM 50.8500 -126.2333 328° Northwest 380 437 26,000  Level Vancouver Center
Tue 07:37:06 PM 50.9500 -126.3500 324° Northwest 390 449 26,000  Level Vancouver Center
Tue 07:38:06 PM 51.0333 -126.4500 323° Northwest 390 449 26,000  Level Vancouver Center
Tue 07:39:06 PM 51.1333 -126.5333 332° Northwest 390 449 26,000  Level Vancouver Center
Tue 07:40:06 PM 51.2000 -126.6500 312° West 390 449 26,000  Level Vancouver Center
Tue 07:41:06 PM 51.2833 -126.7333 328° Northwest 390 449 26,000  Level Vancouver Center
Tue 07:42:06 PM 51.3833 -126.8500 324° Northwest 390 449 26,000  Level Vancouver Center
Tue 07:43:06 PM 51.4667 -126.9333 328° Northwest 390 449 26,000  Level Vancouver Center
Tue 07:44:06 PM 51.5667 -127.0500 324° Northwest 400 460 26,000 100 Level Vancouver Center
Tue 07:45:06 PM 51.6500 -127.1667 319° Northwest 390 449 26,200 400 Climbing Vancouver Center
Tue 07:46:06 PM 51.7667 -127.2000 350° North 400 460 26,800 400 Climbing Vancouver Center
Tue 07:47:06 PM 51.8667 -127.1000 32° Northeast 430 495 27,000 100 Climbing Vancouver Center
Tue 07:48:06 PM 51.9167 -126.9167 66° East 470 541 27,000  Level Vancouver Center
Tue 07:49:06 PM 51.8833 -126.7000 104° East 490 564 27,000  Level Vancouver Center
Tue 07:50:06 PM 51.8167 -126.5333 123° Southeast 500 575 27,000  Level Vancouver Center
Tue 07:51:06 PM 51.6833 -126.4167 152° Southeast 490 564 27,000  Level Vancouver Center
Tue 07:52:06 PM 51.5833 -126.2667 137° Southeast 490 564 27,000  Level Vancouver Center
Tue 07:53:06 PM 51.4500 -126.1500 151° Southeast 490 564 27,000  Level Vancouver Center
Tue 07:54:07 PM 51.3500 -126.0500 148° Southeast 490 564 27,000  Level Vancouver Center
Tue 07:55:06 PM 51.2167 -125.9000 145° Southeast 490 564 27,000  Level Vancouver Center
Tue 07:56:06 PM 51.1167 -125.8000 148° Southeast 490 564 27,000  Level Vancouver Center
Tue 07:57:06 PM 51.0000 -125.6833 148° Southeast 500 575 27,000  Level Vancouver Center
Tue 07:58:06 PM 50.8833 -125.5667 148° Southeast 500 575 27,000  Level Vancouver Center
Tue 07:59:07 PM 50.7667 -125.4667 152° Southeast 500 575 27,000  Level Vancouver Center
Tue 08:00:06 PM 50.6500 -125.3333 144° Southeast 500 575 27,000  Level Vancouver Center
Tue 08:01:06 PM 50.5333 -125.2167 148° Southeast 500 575 27,000  Level Vancouver Center
Tue 08:02:06 PM 50.4167 -125.0833 144° Southeast 490 564 27,000  Level Vancouver Center
Tue 08:03:07 PM 50.3000 -124.9667 147° Southeast 490 564 27,000  Level Vancouver Center
Tue 08:04:07 PM 50.1833 -124.8667 151° Southeast 490 564 27,000  Level Vancouver Center
Tue 08:05:07 PM 50.0667 -124.7667 151° Southeast 490 564 27,000  Level Vancouver Center
Tue 08:06:07 PM 49.9500 -124.6500 147° Southeast 490 564 27,000  Level Vancouver Center
Tue 08:07:07 PM 49.8333 -124.5167 144° Southeast 490 564 27,000  Level Vancouver Center
Tue 08:08:07 PM 49.7167 -124.4167 151° Southeast 490 564 27,000  Level Vancouver Center
Tue 08:09:07 PM 49.6000 -124.3167 151° Southeast 490 564 27,000  Level Vancouver Center
Tue 08:10:07 PM 49.4833 -124.2167 151° Southeast 490 564 27,000  Level Vancouver Center
Tue 08:11:07 PM 49.3667 -124.1000 147° Southeast 490 564 27,000  Level Vancouver Center
Tue 08:12:07 PM 49.2500 -123.9833 147° Southeast 490 564 27,000  Level Vancouver Center
Tue 08:13:07 PM 49.1333 -123.8833 151° Southeast 490 564 27,000 -100 Level Vancouver Center
Tue 08:14:07 PM 49.0167 -123.7667 147° Southeast 490 564 26,800 -250 Descending Vancouver Center
Tue 08:15:07 PM 48.9000 -123.6667 151° Southeast 490 564 26,500 -350 Descending Vancouver Center
Tue 08:16:07 PM 48.7833 -123.5500 147° Southeast 490 564 26,100 -350 Descending Vancouver Center
Tue 08:17:07 PM 48.6667 -123.4500 150° Southeast 490 564 25,800 -800 Descending Vancouver Center
Tue 08:18:07 PM 48.5500 -123.3500 150° Southeast 490 564 24,500 -1,800 Descending Vancouver Center
Tue 08:19:07 PM 48.4500 -123.2500 146° Southeast 470 541 22,200 -2,200 Descending Vancouver Center
Tue 08:20:07 PM 48.3500 -123.1500 146° Southeast 430 495 20,100 -2,100 Descending Vancouver Center
Tue 08:21:07 PM 48.2500 -123.0667 151° Southeast 400 460 18,000 -2,118 Descending Vancouver Center
Tue 08:22:06 PM 48.1867 -122.9858 140° Southeast 366 421 15,900 -2,024 Descending Seattle Center
Tue 08:22:30 PM 48.1525 -122.9547 149° Southeast 363 418 15,200 -1,857 Descending Seattle Center
Tue 08:22:48 PM 48.1264 -122.9292 147° Southeast 358 412 14,600 -1,869 Descending Seattle Center
Tue 08:23:31 PM 48.0692 -122.8781 149° Southeast 349 402 13,300 -1,929 Descending Seattle Center
Tue 08:23:44 PM 48.0494 -122.8589 147° Southeast 350 403 12,800 -1,180 Descending Seattle Center
Tue 08:24:32 PM 48.0050 -122.7783 129° Southeast 338 389 12,100 -1,000 Descending Seattle Center
Tue 08:24:44 PM 47.9919 -122.7514 126° Southeast 314 361 11,800 -1,548 Descending Seattle Center
Tue 08:25:34 PM 47.9506 -122.6767 130° Southeast 316 364 10,500 -1,672 Descending Seattle Center
Tue 08:25:45 PM 47.9383 -122.6519 126° Southeast 310 357 10,100 -1,574 Descending Seattle Center
Tue 08:26:35 PM 47.8936 -122.5858 135° Southeast 300 345 8,900 -1,574 Descending Seattle Center
Tue 08:26:46 PM 47.8767 -122.5639 139° Southeast 291 335 8,500 -1,377 Descending Seattle Center
Tue 08:27:36 PM 47.8358 -122.5028 135° Southeast 289 333 7,500 -1,433 Descending Seattle Center
Tue 08:27:53 PM 47.8133 -122.4700 136° Southeast 284 327 6,900 -1,258 Descending Seattle Center
Tue 08:28:38 PM 47.7742 -122.4214 140° Southeast 273 314 6,200 -885 Descending Seattle Center
Tue 08:28:54 PM 47.7583 -122.4014 140° Southeast 258 297 6,000 -787 Descending Seattle Center
Tue 08:29:39 PM 47.7192 -122.3494 138° Southeast 249 287 5,400 -787 Descending Seattle Center
Tue 08:29:55 PM 47.7086 -122.3367 141° Southeast 222 255 5,200 -689 Descending Seattle Center
Tue 08:30:40 PM 47.6667 -122.3067 154° Southeast 229 264 4,700 -982 Descending Seattle Center
Tue 08:30:50 PM 47.6564 -122.3064 179° South 229 264 4,300 -1,452 Descending Seattle Center
Tue 08:31:42 PM 47.5983 -122.3075 181° South 244 281 3,200 -1,274 Descending Seattle Center
Tue 08:32:43 PM 47.5431 -122.3069 180° South 203 234 1,900 -1,120 Descending Seattle Center
Tue 08:32:57 PM 47.5300 -122.3072 181° South 196 226 1,800 -787 Descending Seattle Center
Tue 08:33:44 PM 47.4925 -122.3075 180° South 159 183 1,100 -885 Descending Seattle Center
Tue 08:33:58 PM 47.4833 -122.3069 178° South 146 168 900 -590 Descending Seattle Center
Tue 08:34:45 PM 47.4569 -122.3092 183° South 153 176 500 Descending Seattle Center
Tue 08:36:00 PM 47.5669 -122.4150 234° Southwest  Level Estimated
Tue 08:44:00 PM 47.8444 -123.2221 317° Northwest  Level FlightAware Approximate
Tue 08:45:00 PM 47.9213 -123.3310 316° Northwest  Level FlightAware Approximate
Tue 08:46:00 PM 47.9971 -123.4417 316° Northwest  Level FlightAware Approximate
Tue 08:47:00 PM 48.0727 -123.5528 316° Northwest  Level FlightAware Approximate
Tue 08:48:00 PM 48.1483 -123.6641 316° Northwest  Level FlightAware Approximate
Tue 08:49:00 PM 48.2447 -123.7298 336° Northwest  Level FlightAware Approximate
Tue 08:50:00 PM 48.3388 -123.8031 332° Northwest  Level FlightAware Approximate
Tue 08:51:00 PM 48.4328 -123.8772 332° Northwest  Level FlightAware Approximate
Tue 08:52:00 PM 48.5266 -123.9515 332° Northwest  Level FlightAware Approximate
Tue 08:53:00 PM 48.6205 -124.0261 332° Northwest  Level FlightAware Approximate
Tue 08:54:00 PM 48.7142 -124.1010 332° Northwest  Level FlightAware Approximate
Tue 08:55:00 PM 48.8080 -124.1762 332° Northwest  Level FlightAware Approximate
Tue 08:56:00 PM 48.9016 -124.2516 332° Northwest  Level FlightAware Approximate
Tue 08:57:00 PM 48.9953 -124.3274 332° Northwest  Level FlightAware Approximate
Tue 08:58:00 PM 49.0889 -124.4034 332° Northwest  Level FlightAware Approximate
Tue 08:59:00 PM 49.1824 -124.4797 332° Northwest  Level FlightAware Approximate
Tue 09:00:00 PM 49.2759 -124.5563 332° Northwest  Level FlightAware Approximate
Tue 09:01:00 PM 49.3693 -124.6332 332° Northwest  Level FlightAware Approximate
Tue 09:02:00 PM 49.4627 -124.7104 332° Northwest  Level FlightAware Approximate
Tue 09:03:00 PM 49.5560 -124.7879 332° Northwest  Level FlightAware Approximate
Tue 09:04:00 PM 49.6493 -124.8656 332° Northwest  Level FlightAware Approximate
Tue 09:05:00 PM 49.7425 -124.9437 332° Northwest  Level FlightAware Approximate
Tue 09:06:00 PM 49.8308 -125.0345 326° Northwest  Level FlightAware Approximate
Tue 09:07:00 PM 49.9186 -125.1268 326° Northwest  Level FlightAware Approximate
Tue 09:08:00 PM 50.0063 -125.2194 326° Northwest  Level FlightAware Approximate
Tue 09:09:00 PM 50.0937 -125.3128 325° Northwest  Level FlightAware Approximate
Tue 09:10:00 PM 50.1805 -125.4078 325° Northwest  Level FlightAware Approximate
Tue 09:11:00 PM 50.2672 -125.5031 325° Northwest  Level FlightAware Approximate
Tue 09:12:00 PM 50.3539 -125.5988 325° Northwest  Level FlightAware Approximate
Tue 09:13:00 PM 50.4404 -125.6948 325° Northwest  Level FlightAware Approximate
Tue 09:14:00 PM 50.5269 -125.7912 325° Northwest  Level FlightAware Approximate
Tue 09:15:00 PM 50.6133 -125.8880 325° Northwest  Level FlightAware Approximate
Tue 09:16:00 PM 50.6996 -125.9851 324° Northwest  Level FlightAware Approximate
Tue 09:17:00 PM 50.7857 -126.0830 324° Northwest  Level FlightAware Approximate
Tue 09:18:00 PM 50.8716 -126.1812 324° Northwest  Level FlightAware Approximate
Tue 09:19:00 PM 50.9575 -126.2798 324° Northwest  Level FlightAware Approximate
Tue 09:20:00 PM 51.0433 -126.3788 324° Northwest  Level FlightAware Approximate
Tue 09:21:00 PM 51.1290 -126.4781 324° Northwest  Level FlightAware Approximate
Tue 09:22:00 PM 51.2147 -126.5778 324° Northwest  Level FlightAware Approximate
Tue 09:23:00 PM 51.3002 -126.6779 324° Northwest  Level FlightAware Approximate
Tue 09:24:00 PM 51.3857 -126.7784 324° Northwest  Level FlightAware Approximate
Tue 09:25:00 PM 51.4711 -126.8792 324° Northwest  Level FlightAware Approximate
Tue 09:26:00 PM 51.5564 -126.9804 324° Northwest  Level FlightAware Approximate
Tue 09:27:00 PM 51.6416 -127.0819 324° Northwest  Level FlightAware Approximate
Tue 09:28:00 PM 51.7267 -127.1839 323° Northwest  Level FlightAware Approximate
Tue 09:29:00 PM 51.8117 -127.2862 323° Northwest  Level FlightAware Approximate
Tue 09:30:00 PM 51.8966 -127.3890 323° Northwest  Level FlightAware Approximate
Tue 09:31:00 PM 51.9815 -127.4921 323° Northwest  Level FlightAware Approximate
Tue 09:32:00 PM 52.0663 -127.5956 323° Northwest  Level FlightAware Approximate
Tue 09:33:00 PM 52.1509 -127.6995 323° Northwest  Level FlightAware Approximate
Tue 09:34:00 PM 52.2355 -127.8038 323° Northwest  Level FlightAware Approximate
Tue 09:35:00 PM 52.3200 -127.9085 323° Northwest  Level FlightAware Approximate
Tue 09:36:00 PM 52.4044 -128.0136 323° Northwest  Level FlightAware Approximate
Tue 09:37:00 PM 52.4887 -128.1191 323° Northwest  Level FlightAware Approximate
Tue 09:38:00 PM 52.5800 -128.2045 323° Northwest  Level FlightAware Approximate
Tue 09:39:00 PM 52.6641 -128.3108 323° Northwest  Level FlightAware Approximate
Tue 09:39:08 PM 47.4294 -122.3136 322° Northwest 177 204 1,200  Level Seattle Center
Tue 09:39:20 PM 47.4189 -122.3161 189° South 175 201 1,700 2,301 Climbing Seattle Center
Tue 09:40:00 PM 52.7481 -128.4176 322° Northwest  Level FlightAware Approximate
Tue 09:40:21 PM 47.3550 -122.3186 182° South 242 278 4,000  Level Seattle Center
Tue 09:40:57 PM 47.3172 -122.3436 204° Southwest 266 306 5,400 3,049 Climbing Seattle Center
Tue 09:41:00 PM 52.8320 -128.5247 322° Northwest  Level FlightAware Approximate
Tue 09:41:22 PM 47.3119 -122.3847 259° West 278 320 7,100  Level Seattle Center
Tue 09:41:58 PM 47.3117 -122.4494 270° West 261 300 9,000 2,412 Climbing Seattle Center
Tue 09:42:00 PM 52.9159 -128.6323 322° Northwest  Level FlightAware Approximate
Tue 09:42:59 PM 47.3569 -122.5439 305° West 288 331 11,000  Level Seattle Center
Tue 09:43:00 PM 52.9996 -128.7403 322° Northwest  Level FlightAware Approximate
Tue 09:44:00 PM 53.0832 -128.8487 322° Northwest  Level FlightAware Approximate
Tue 09:44:00 PM 47.4311 -122.6364 320° Northwest 349 402 12,800  Level Seattle Center
Tue 09:45:01 PM 47.5089 -122.7389 318° Northwest 371 427 15,800 2,410 Climbing Seattle Center
Tue 09:46:02 PM 47.5792 -122.8292 319° Northwest 373 429 17,700 2,083 Climbing Seattle Center
Tue 09:47:02 PM 47.6731 -122.9186 299° West 393 452 20,000 2,281 Climbing Seattle Center
Tue 09:48:03 PM 47.7881 -123.0292 327° Northwest 405 466 22,300 1,967 Climbing Seattle Center
Tue 09:49:04 PM 47.8844 -123.1225 327° Northwest 412 474 24,000 836 Climbing Seattle Center
Tue 09:50:05 PM 47.9808 -123.2181 311° West 412 474 24,000  Level Seattle Center
Tue 09:51:06 PM 48.0794 -123.3117 328° Northwest 416 479 24,000  Level Seattle Center
Tue 09:52:07 PM 48.1767 -123.4072 327° Northwest 418 481 24,000  Level Seattle Center
Tue 09:53:08 PM 48.2714 -123.5011 327° Northwest 416 479 24,000  Level Seattle Center
Tue 09:54:28 PM 48.3833 -123.6167 326° Northwest 410 472 24,000  Level Vancouver Center
Tue 09:55:28 PM 48.4833 -123.7167 326° Northwest 410 472 24,000  Level Vancouver Center
Tue 09:56:28 PM 48.5833 -123.8167 327° Northwest 420 483 24,000  Level Vancouver Center
Tue 09:57:28 PM 48.6667 -123.9333 317° Northwest 420 483 24,000  Level Vancouver Center
Tue 09:58:28 PM 48.7667 -124.0000 320° Northwest 420 483 24,000  Level Vancouver Center
Tue 09:59:28 PM 48.8667 -124.1000 327° Northwest 420 483 24,000  Level Vancouver Center
Tue 10:00:28 PM 48.9667 -124.2000 327° Northwest 410 472 24,000  Level Vancouver Center
Tue 10:01:28 PM 49.0500 -124.3167 317° Northwest 410 472 24,000  Level Vancouver Center
Tue 10:02:28 PM 49.1500 -124.4167 327° Northwest 420 483 24,000  Level Vancouver Center
Tue 10:03:28 PM 49.2500 -124.5167 327° Northwest 420 483 24,000  Level Vancouver Center
Tue 10:04:28 PM 49.3500 -124.6167 327° Northwest 420 483 24,000  Level Vancouver Center
Tue 10:05:28 PM 49.4500 -124.7167 327° Northwest 420 483 24,000  Level Vancouver Center
Tue 10:06:28 PM 49.5333 -124.8000 327° Northwest 420 483 24,000  Level Vancouver Center
Tue 10:07:28 PM 49.6333 -124.9000 327° Northwest 420 483 24,000  Level Vancouver Center
Tue 10:08:28 PM 49.7333 -125.0167 323° Northwest 420 483 24,000  Level Vancouver Center
Tue 10:09:28 PM 49.8167 -125.1167 322° Northwest 420 483 24,000  Level Vancouver Center
Tue 10:10:28 PM 49.9333 -125.2333 327° Northwest 420 483 24,000  Level Vancouver Center
Tue 10:11:28 PM 50.0167 -125.3333 322° Northwest 420 483 24,000  Level Vancouver Center
Tue 10:12:28 PM 50.1167 -125.4333 327° Northwest 420 483 24,000  Level Vancouver Center
Tue 10:13:28 PM 50.2167 -125.5167 332° Northwest 420 483 24,000  Level Vancouver Center
Tue 10:14:28 PM 50.3167 -125.6333 323° Northwest 420 483 24,000  Level Vancouver Center
Tue 10:15:28 PM 50.3833 -125.7333 316° Northwest 420 483 24,000  Level Vancouver Center
Tue 10:16:28 PM 50.4833 -125.8500 323° Northwest 420 483 24,000  Level Vancouver Center
Tue 10:17:28 PM 50.5833 -125.9500 328° Northwest 420 483 24,000  Level Vancouver Center
Tue 10:18:28 PM 50.6833 -126.0667 324° Northwest 420 483 24,000  Level Vancouver Center
Tue 10:19:28 PM 50.7667 -126.1500 328° Northwest 410 472 24,000  Level Vancouver Center
Tue 10:20:28 PM 50.8667 -126.2667 324° Northwest 400 460 24,000  Level Vancouver Center
Tue 10:21:28 PM 50.9667 -126.3667 328° Northwest 400 460 24,000  Level Vancouver Center
Tue 10:22:28 PM 51.0500 -126.4500 325° Northwest 400 460 24,000  Level Vancouver Center
Tue 10:23:28 PM 51.1500 -126.5667 324° Northwest 400 460 24,000  Level Vancouver Center
Tue 10:24:28 PM 51.2167 -126.6833 312° West 410 472 24,000  Level Vancouver Center
Tue 10:25:28 PM 51.3167 -126.7833 328° Northwest 410 472 24,000  Level Vancouver Center
Tue 10:26:28 PM 51.4167 -126.8833 325° Northwest 400 460 24,000  Level Vancouver Center
Tue 10:27:28 PM 51.5000 -126.9833 323° Northwest 400 460 24,000  Level Vancouver Center
Tue 10:28:28 PM 51.6000 -127.1000 324° Northwest 400 460 24,000  Level Vancouver Center
Tue 10:29:28 PM 51.7000 -127.2167 324° Northwest 400 460 24,000  Level Vancouver Center
Tue 10:30:28 PM 51.7667 -127.3000 322° Northwest 400 460 24,000  Level Vancouver Center
Tue 10:31:28 PM 51.8667 -127.4167 324° Northwest 410 472 24,000  Level Vancouver Center
Tue 10:32:28 PM 51.9500 -127.5333 319° Northwest 410 472 24,000  Level Vancouver Center
Tue 10:33:28 PM 52.0500 -127.6500 324° Northwest 410 472 24,000  Level Vancouver Center
Tue 10:34:28 PM 52.1500 -127.7500 328° Northwest 410 472 24,000  Level Vancouver Center
Tue 10:35:28 PM 52.2333 -127.8667 319° Northwest 410 472 24,000  Level Vancouver Center
Tue 10:36:28 PM 52.3167 -127.9833 319° Northwest 400 460 24,000  Level Vancouver Center
Tue 10:37:28 PM 52.4000 -128.0667 329° Northwest 400 460 24,000  Level Vancouver Center
Tue 10:38:28 PM 52.5000 -128.1833 325° Northwest 400 460 24,000  Level Vancouver Center
Tue 10:39:28 PM 52.6000 -128.3000 326° Northwest 400 460 24,000  Level Vancouver Center
Tue 10:40:28 PM 52.6667 -128.4167 313° West 400 460 24,000  Level Vancouver Center
Tue 10:41:28 PM 52.7667 -128.5167 329° Northwest 400 460 24,000  Level Vancouver Center
Tue 10:42:28 PM 52.8500 -128.6333 320° Northwest 400 460 24,000  Level Vancouver Center
Tue 10:43:28 PM 52.9500 -128.7500 325° Northwest 400 460 24,000  Level Vancouver Center
Tue 10:44:28 PM 53.0333 -128.8833 316° Northwest 410 472 24,000  Level Vancouver Center
Tue 10:45:28 PM 53.1333 -128.9833 329° Northwest 400 460 24,000  Level Vancouver Center
Tue 10:46:28 PM 53.2167 -129.1000 320° Northwest 400 460 24,000  Level Vancouver Center
Tue 10:47:28 PM 53.2833 -129.2167 314° West 400 460 24,000  Level Vancouver Center
Tue 10:48:28 PM 53.3833 -129.3167 329° Northwest 400 460 24,000  Level Vancouver Center
Tue 10:49:28 PM 53.4667 -129.4333 320° Northwest 400 460 24,000  Level Vancouver Center
Tue 10:50:28 PM 53.5667 -129.5667 322° Northwest 400 460 24,000  Level Vancouver Center
Tue 10:51:28 PM 53.6333 -129.6500 323° Northwest 390 449 24,000  Level Vancouver Center
Tue 10:52:28 PM 53.7333 -129.7833 322° Northwest 400 460 24,000  Level Vancouver Center
Tue 10:53:28 PM 53.8333 -129.9167 322° Northwest 400 460 24,000  Level Vancouver Center
Tue 10:54:28 PM 53.9000 -130.0000 324° Northwest 400 460 24,000  Level Vancouver Center
Tue 10:55:28 PM 54.0000 -130.1333 322° Northwest 400 460 24,000  Level Vancouver Center
Tue 10:56:28 PM 54.0833 -130.2667 317° Northwest 400 460 24,000  Level Vancouver Center
Tue 10:57:28 PM 54.1667 -130.3667 325° Northwest 400 460 24,000  Level Vancouver Center
Tue 10:58:28 PM 54.2667 -130.4833 326° Northwest 400 460 24,000  Level Vancouver Center
Tue 10:59:28 PM 54.3500 -130.6167 317° Northwest 400 460 24,000 -750 Level Vancouver Center
Tue 11:00:28 PM 54.4167 -130.7167 319° Northwest 400 460 22,500 -2,100 Descending Vancouver Center
Tue 11:01:28 PM 54.5167 -130.8500 322° Northwest 390 449 19,800 -2,650 Descending Vancouver Center
Tue 11:02:28 PM 54.6000 -130.9500 325° Northwest 380 437 17,200 -2,800 Descending Vancouver Center
Tue 11:03:28 PM 54.6667 -131.0667 315° West 360 414 14,200 -2,750 Descending Vancouver Center
Tue 11:04:28 PM 54.7500 -131.1667 325° Northwest 360 414 11,700 -2,150 Descending Vancouver Center
Tue 11:05:28 PM 54.8167 -131.2833 315° West 350 403 9,900 -1,150 Descending Vancouver Center
Tue 11:06:28 PM 54.8833 -131.3667 324° Northwest 300 345 9,400 -1,000 Descending Vancouver Center
Tue 11:07:28 PM 54.9667 -131.4167 341° North 270 311 7,900 -1,400 Descending Vancouver Center
Tue 11:08:28 PM 55.0333 -131.4833 330° Northwest 260 299 6,600 -1,450 Descending Vancouver Center
Tue 11:09:28 PM 55.1000 -131.5333 337° Northwest 250 288 5,000 -1,500 Descending Vancouver Center
Tue 11:10:28 PM 55.1333 -131.6000 311° West 250 288 3,600 -1,400 Descending Vancouver Center
Tue 11:12:00 PM 55.1802 -131.6302 330° Northwest  Level FlightAware Approximate
Tue 11:19:00 PM 55.3500 -131.7000 347° North  Level FlightAware Approximate
Tue 11:20:00 PM 55.3541 -131.7112 North  Level Estimated
Tue 11:21:00 PM 55.3541 -131.7112 123° Southeast  Level Estimated
Tue 11:22:00 PM 55.3541 -131.7112 347° North  Level Estimated
Tue 11:23:00 PM 55.3541 -131.7112 123° Southeast  Level Estimated
Tue 11:24:00 PM 55.3541 -131.7112 123° Southeast  Level Estimated
Tue 11:25:00 PM 55.3541 -131.7112 347° North  Level Estimated

Login

Don't have an account? Register now (free) for customized features, flight alerts, and more!